sensor_id;sensor_type;location;lat;lon;timestamp;P1;durP1;ratioP1;P2;durP2;ratioP2
13683;SDS011;6914;53.552;9.908;2023-05-07T00:01:53;19.47;;;15.37;;
13683;SDS011;6914;53.552;9.908;2023-05-07T00:04:22;21.97;;;17.30;;
13683;SDS011;6914;53.552;9.908;2023-05-07T00:06:51;28.60;;;17.20;;
13683;SDS011;6914;53.552;9.908;2023-05-07T00:09:18;18.63;;;15.97;;
13683;SDS011;6914;53.552;9.908;2023-05-07T00:11:45;27.13;;;16.80;;
13683;SDS011;6914;53.552;9.908;2023-05-07T00:14:12;17.90;;;15.93;;
13683;SDS011;6914;53.552;9.908;2023-05-07T00:16:39;18.03;;;15.63;;
13683;SDS011;6914;53.552;9.908;2023-05-07T00:19:06;21.97;;;15.80;;
13683;SDS011;6914;53.552;9.908;2023-05-07T00:21:34;23.37;;;17.30;;
13683;SDS011;6914;53.552;9.908;2023-05-07T00:24:01;22.67;;;16.43;;
13683;SDS011;6914;53.552;9.908;2023-05-07T00:26:30;21.77;;;16.07;;
13683;SDS011;6914;53.552;9.908;2023-05-07T00:28:57;21.47;;;14.53;;
13683;SDS011;6914;53.552;9.908;2023-05-07T00:31:25;16.70;;;15.00;;
13683;SDS011;6914;53.552;9.908;2023-05-07T00:33:52;18.97;;;15.03;;
13683;SDS011;6914;53.552;9.908;2023-05-07T00:36:19;25.93;;;14.70;;
13683;SDS011;6914;53.552;9.908;2023-05-07T00:38:47;14.77;;;13.17;;
13683;SDS011;6914;53.552;9.908;2023-05-07T00:41:15;15.43;;;13.83;;
13683;SDS011;6914;53.552;9.908;2023-05-07T00:43:42;14.33;;;11.87;;
13683;SDS011;6914;53.552;9.908;2023-05-07T00:46:09;14.47;;;12.70;;
13683;SDS011;6914;53.552;9.908;2023-05-07T00:48:36;17.40;;;13.40;;
13683;SDS011;6914;53.552;9.908;2023-05-07T00:51:03;17.43;;;13.30;;
13683;SDS011;6914;53.552;9.908;2023-05-07T00:53:31;14.93;;;12.70;;
13683;SDS011;6914;53.552;9.908;2023-05-07T00:55:59;15.50;;;13.80;;
13683;SDS011;6914;53.552;9.908;2023-05-07T00:58:27;13.60;;;12.00;;
13683;SDS011;6914;53.552;9.908;2023-05-07T01:00:54;15.20;;;10.83;;
13683;SDS011;6914;53.552;9.908;2023-05-07T01:03:20;13.70;;;11.77;;
13683;SDS011;6914;53.552;9.908;2023-05-07T01:05:48;12.53;;;11.07;;
13683;SDS011;6914;53.552;9.908;2023-05-07T01:08:17;16.70;;;11.60;;
13683;SDS011;6914;53.552;9.908;2023-05-07T01:10:44;10.60;;;9.53;;
13683;SDS011;6914;53.552;9.908;2023-05-07T01:13:13;14.57;;;10.20;;
13683;SDS011;6914;53.552;9.908;2023-05-07T01:15:41;12.37;;;11.07;;
13683;SDS011;6914;53.552;9.908;2023-05-07T01:18:08;15.43;;;11.47;;
13683;SDS011;6914;53.552;9.908;2023-05-07T01:20:36;18.30;;;12.07;;
13683;SDS011;6914;53.552;9.908;2023-05-07T01:23:04;13.17;;;11.70;;
13683;SDS011;6914;53.552;9.908;2023-05-07T01:25:33;15.77;;;11.50;;
13683;SDS011;6914;53.552;9.908;2023-05-07T01:28:00;17.77;;;13.17;;
13683;SDS011;6914;53.552;9.908;2023-05-07T01:30:27;14.90;;;12.40;;
13683;SDS011;6914;53.552;9.908;2023-05-07T01:32:56;16.20;;;11.90;;
13683;SDS011;6914;53.552;9.908;2023-05-07T01:35:27;16.10;;;11.30;;
13683;SDS011;6914;53.552;9.908;2023-05-07T01:37:58;12.07;;;10.87;;
13683;SDS011;6914;53.552;9.908;2023-05-07T01:40:27;13.80;;;12.40;;
13683;SDS011;6914;53.552;9.908;2023-05-07T01:42:54;55.97;;;11.53;;
13683;SDS011;6914;53.552;9.908;2023-05-07T01:45:21;13.00;;;11.10;;
13683;SDS011;6914;53.552;9.908;2023-05-07T01:47:48;15.03;;;11.13;;
13683;SDS011;6914;53.552;9.908;2023-05-07T01:50:17;11.40;;;10.23;;
13683;SDS011;6914;53.552;9.908;2023-05-07T01:52:46;11.80;;;10.67;;
13683;SDS011;6914;53.552;9.908;2023-05-07T01:55:13;11.37;;;10.30;;
13683;SDS011;6914;53.552;9.908;2023-05-07T01:57:42;12.03;;;10.93;;
13683;SDS011;6914;53.552;9.908;2023-05-07T02:00:09;12.60;;;11.50;;
13683;SDS011;6914;53.552;9.908;2023-05-07T02:02:36;11.27;;;9.70;;
13683;SDS011;6914;53.552;9.908;2023-05-07T02:05:03;12.70;;;9.83;;
13683;SDS011;6914;53.552;9.908;2023-05-07T02:07:31;11.70;;;10.53;;
13683;SDS011;6914;53.552;9.908;2023-05-07T02:09:58;12.10;;;9.90;;
13683;SDS011;6914;53.552;9.908;2023-05-07T02:12:24;12.77;;;11.47;;
13683;SDS011;6914;53.552;9.908;2023-05-07T02:14:54;11.03;;;10.00;;
13683;SDS011;6914;53.552;9.908;2023-05-07T02:17:21;11.97;;;10.37;;
13683;SDS011;6914;53.552;9.908;2023-05-07T02:19:48;11.47;;;10.17;;
13683;SDS011;6914;53.552;9.908;2023-05-07T02:22:15;10.57;;;9.63;;
13683;SDS011;6914;53.552;9.908;2023-05-07T02:24:42;14.73;;;11.73;;
13683;SDS011;6914;53.552;9.908;2023-05-07T02:27:09;12.27;;;11.03;;
13683;SDS011;6914;53.552;9.908;2023-05-07T02:29:36;15.93;;;11.20;;
13683;SDS011;6914;53.552;9.908;2023-05-07T02:32:06;11.80;;;10.60;;
13683;SDS011;6914;53.552;9.908;2023-05-07T02:34:32;12.20;;;10.93;;
13683;SDS011;6914;53.552;9.908;2023-05-07T02:36:59;15.73;;;12.20;;
13683;SDS011;6914;53.552;9.908;2023-05-07T02:39:26;11.83;;;10.63;;
13683;SDS011;6914;53.552;9.908;2023-05-07T02:41:56;14.13;;;12.10;;
13683;SDS011;6914;53.552;9.908;2023-05-07T02:44:23;15.43;;;13.10;;
13683;SDS011;6914;53.552;9.908;2023-05-07T02:46:50;15.40;;;11.43;;
13683;SDS011;6914;53.552;9.908;2023-05-07T02:49:19;15.83;;;12.27;;
13683;SDS011;6914;53.552;9.908;2023-05-07T02:51:46;16.10;;;12.80;;
13683;SDS011;6914;53.552;9.908;2023-05-07T02:54:15;15.27;;;12.03;;
13683;SDS011;6914;53.552;9.908;2023-05-07T02:56:42;14.27;;;12.10;;
13683;SDS011;6914;53.552;9.908;2023-05-07T02:59:10;15.33;;;12.43;;
13683;SDS011;6914;53.552;9.908;2023-05-07T03:01:37;15.23;;;11.50;;
13683;SDS011;6914;53.552;9.908;2023-05-07T03:04:04;22.13;;;12.03;;
13683;SDS011;6914;53.552;9.908;2023-05-07T03:06:32;14.23;;;12.53;;
13683;SDS011;6914;53.552;9.908;2023-05-07T03:08:59;13.40;;;12.10;;
13683;SDS011;6914;53.552;9.908;2023-05-07T03:11:26;13.90;;;12.20;;
13683;SDS011;6914;53.552;9.908;2023-05-07T03:13:55;15.33;;;12.43;;
13683;SDS011;6914;53.552;9.908;2023-05-07T03:16:21;17.00;;;13.30;;
13683;SDS011;6914;53.552;9.908;2023-05-07T03:18:48;16.17;;;12.30;;
13683;SDS011;6914;53.552;9.908;2023-05-07T03:21:16;24.43;;;12.70;;
13683;SDS011;6914;53.552;9.908;2023-05-07T03:23:44;16.97;;;12.93;;
13683;SDS011;6914;53.552;9.908;2023-05-07T03:26:11;16.60;;;14.23;;
13683;SDS011;6914;53.552;9.908;2023-05-07T03:28:37;16.10;;;12.53;;
13683;SDS011;6914;53.552;9.908;2023-05-07T03:31:04;14.53;;;13.00;;
13683;SDS011;6914;53.552;9.908;2023-05-07T03:33:32;21.70;;;14.83;;
13683;SDS011;6914;53.552;9.908;2023-05-07T03:36:00;19.77;;;15.13;;
13683;SDS011;6914;53.552;9.908;2023-05-07T03:38:26;19.33;;;13.87;;
13683;SDS011;6914;53.552;9.908;2023-05-07T03:40:57;21.40;;;15.73;;
13683;SDS011;6914;53.552;9.908;2023-05-07T03:43:24;15.63;;;13.10;;
13683;SDS011;6914;53.552;9.908;2023-05-07T03:45:55;19.17;;;13.60;;
13683;SDS011;6914;53.552;9.908;2023-05-07T03:48:25;19.53;;;14.90;;
13683;SDS011;6914;53.552;9.908;2023-05-07T03:50:52;16.27;;;14.00;;
13683;SDS011;6914;53.552;9.908;2023-05-07T03:53:21;22.27;;;14.63;;
13683;SDS011;6914;53.552;9.908;2023-05-07T03:55:48;16.70;;;14.97;;
13683;SDS011;6914;53.552;9.908;2023-05-07T03:58:16;24.37;;;15.43;;
13683;SDS011;6914;53.552;9.908;2023-05-07T04:00:43;17.00;;;14.53;;
13683;SDS011;6914;53.552;9.908;2023-05-07T04:03:10;17.27;;;15.10;;
13683;SDS011;6914;53.552;9.908;2023-05-07T04:05:36;16.90;;;13.60;;
13683;SDS011;6914;53.552;9.908;2023-05-07T04:08:03;16.63;;;13.27;;
13683;SDS011;6914;53.552;9.908;2023-05-07T04:10:31;19.70;;;14.70;;
13683;SDS011;6914;53.552;9.908;2023-05-07T04:12:57;18.80;;;16.20;;
13683;SDS011;6914;53.552;9.908;2023-05-07T04:15:26;15.50;;;13.70;;
13683;SDS011;6914;53.552;9.908;2023-05-07T04:17:53;23.00;;;14.33;;
13683;SDS011;6914;53.552;9.908;2023-05-07T04:20:23;18.00;;;14.00;;
13683;SDS011;6914;53.552;9.908;2023-05-07T04:22:49;19.90;;;14.43;;
13683;SDS011;6914;53.552;9.908;2023-05-07T04:25:18;14.70;;;13.10;;
13683;SDS011;6914;53.552;9.908;2023-05-07T04:27:45;15.53;;;13.67;;
13683;SDS011;6914;53.552;9.908;2023-05-07T04:30:12;13.57;;;12.23;;
13683;SDS011;6914;53.552;9.908;2023-05-07T04:32:41;17.57;;;13.00;;
13683;SDS011;6914;53.552;9.908;2023-05-07T04:35:09;18.83;;;13.77;;
13683;SDS011;6914;53.552;9.908;2023-05-07T04:37:36;14.40;;;12.93;;
13683;SDS011;6914;53.552;9.908;2023-05-07T04:40:06;16.40;;;13.77;;
13683;SDS011;6914;53.552;9.908;2023-05-07T04:42:34;14.63;;;12.70;;
13683;SDS011;6914;53.552;9.908;2023-05-07T04:45:02;15.10;;;13.23;;
13683;SDS011;6914;53.552;9.908;2023-05-07T04:47:30;20.20;;;14.37;;
13683;SDS011;6914;53.552;9.908;2023-05-07T04:49:59;14.47;;;12.53;;
13683;SDS011;6914;53.552;9.908;2023-05-07T04:52:25;17.10;;;13.03;;
13683;SDS011;6914;53.552;9.908;2023-05-07T04:54:52;19.27;;;14.67;;
13683;SDS011;6914;53.552;9.908;2023-05-07T04:57:27;19.17;;;13.10;;
13683;SDS011;6914;53.552;9.908;2023-05-07T04:59:54;14.30;;;12.80;;
13683;SDS011;6914;53.552;9.908;2023-05-07T05:02:24;14.90;;;12.80;;
13683;SDS011;6914;53.552;9.908;2023-05-07T05:04:51;15.20;;;12.60;;
13683;SDS011;6914;53.552;9.908;2023-05-07T05:07:19;16.77;;;14.20;;
13683;SDS011;6914;53.552;9.908;2023-05-07T05:09:48;16.40;;;13.17;;
13683;SDS011;6914;53.552;9.908;2023-05-07T05:12:15;19.07;;;13.27;;
13683;SDS011;6914;53.552;9.908;2023-05-07T05:14:44;14.20;;;12.07;;
13683;SDS011;6914;53.552;9.908;2023-05-07T05:17:11;17.33;;;13.60;;
13683;SDS011;6914;53.552;9.908;2023-05-07T05:19:40;14.63;;;12.93;;
13683;SDS011;6914;53.552;9.908;2023-05-07T05:22:07;12.60;;;11.30;;
13683;SDS011;6914;53.552;9.908;2023-05-07T05:24:36;14.60;;;10.70;;
13683;SDS011;6914;53.552;9.908;2023-05-07T05:27:05;12.30;;;11.00;;
13683;SDS011;6914;53.552;9.908;2023-05-07T05:29:33;15.00;;;11.40;;
13683;SDS011;6914;53.552;9.908;2023-05-07T05:32:00;13.77;;;12.40;;
13683;SDS011;6914;53.552;9.908;2023-05-07T05:34:30;15.13;;;12.30;;
13683;SDS011;6914;53.552;9.908;2023-05-07T05:37:00;12.13;;;10.77;;
13683;SDS011;6914;53.552;9.908;2023-05-07T05:39:26;14.60;;;12.23;;
13683;SDS011;6914;53.552;9.908;2023-05-07T05:41:56;13.73;;;12.33;;
13683;SDS011;6914;53.552;9.908;2023-05-07T05:44:25;14.53;;;11.77;;
13683;SDS011;6914;53.552;9.908;2023-05-07T05:46:52;15.77;;;11.87;;
13683;SDS011;6914;53.552;9.908;2023-05-07T05:49:20;15.70;;;11.43;;
13683;SDS011;6914;53.552;9.908;2023-05-07T05:51:47;15.10;;;12.60;;
13683;SDS011;6914;53.552;9.908;2023-05-07T05:54:14;17.63;;;12.27;;
13683;SDS011;6914;53.552;9.908;2023-05-07T05:56:43;17.17;;;11.77;;
13683;SDS011;6914;53.552;9.908;2023-05-07T05:59:12;18.30;;;10.93;;
13683;SDS011;6914;53.552;9.908;2023-05-07T06:01:39;15.20;;;12.03;;
13683;SDS011;6914;53.552;9.908;2023-05-07T06:04:08;13.47;;;12.17;;
13683;SDS011;6914;53.552;9.908;2023-05-07T06:06:35;11.93;;;10.70;;
13683;SDS011;6914;53.552;9.908;2023-05-07T06:09:02;12.37;;;10.90;;
13683;SDS011;6914;53.552;9.908;2023-05-07T06:11:32;13.30;;;11.90;;
13683;SDS011;6914;53.552;9.908;2023-05-07T06:14:02;13.13;;;11.23;;
13683;SDS011;6914;53.552;9.908;2023-05-07T06:16:30;21.00;;;11.07;;
13683;SDS011;6914;53.552;9.908;2023-05-07T06:18:57;12.30;;;11.20;;
13683;SDS011;6914;53.552;9.908;2023-05-07T06:21:27;13.13;;;11.20;;
13683;SDS011;6914;53.552;9.908;2023-05-07T06:23:53;11.47;;;10.33;;
13683;SDS011;6914;53.552;9.908;2023-05-07T06:26:20;11.83;;;10.60;;
13683;SDS011;6914;53.552;9.908;2023-05-07T06:28:47;14.80;;;11.93;;
13683;SDS011;6914;53.552;9.908;2023-05-07T06:31:14;13.60;;;12.20;;
13683;SDS011;6914;53.552;9.908;2023-05-07T06:33:48;12.13;;;10.80;;
13683;SDS011;6914;53.552;9.908;2023-05-07T06:36:15;14.03;;;10.60;;
13683;SDS011;6914;53.552;9.908;2023-05-07T06:38:42;12.23;;;10.90;;
13683;SDS011;6914;53.552;9.908;2023-05-07T06:41:14;11.60;;;10.40;;
13683;SDS011;6914;53.552;9.908;2023-05-07T06:43:41;12.47;;;10.50;;
13683;SDS011;6914;53.552;9.908;2023-05-07T06:46:08;11.90;;;10.70;;
13683;SDS011;6914;53.552;9.908;2023-05-07T06:48:35;11.80;;;10.40;;
13683;SDS011;6914;53.552;9.908;2023-05-07T06:51:03;13.80;;;11.27;;
13683;SDS011;6914;53.552;9.908;2023-05-07T06:53:31;12.57;;;10.80;;
13683;SDS011;6914;53.552;9.908;2023-05-07T06:55:58;14.10;;;12.23;;
13683;SDS011;6914;53.552;9.908;2023-05-07T06:58:28;13.17;;;11.60;;
13683;SDS011;6914;53.552;9.908;2023-05-07T07:00:55;13.57;;;10.50;;
13683;SDS011;6914;53.552;9.908;2023-05-07T07:03:22;16.03;;;12.70;;
13683;SDS011;6914;53.552;9.908;2023-05-07T07:05:51;13.27;;;11.97;;
13683;SDS011;6914;53.552;9.908;2023-05-07T07:08:19;14.40;;;11.73;;
13683;SDS011;6914;53.552;9.908;2023-05-07T07:10:47;16.20;;;11.60;;
13683;SDS011;6914;53.552;9.908;2023-05-07T07:13:14;15.73;;;12.20;;
13683;SDS011;6914;53.552;9.908;2023-05-07T07:15:41;12.70;;;11.23;;
13683;SDS011;6914;53.552;9.908;2023-05-07T07:18:08;15.57;;;12.20;;
13683;SDS011;6914;53.552;9.908;2023-05-07T07:20:35;12.13;;;10.67;;
13683;SDS011;6914;53.552;9.908;2023-05-07T07:23:03;13.77;;;12.10;;
13683;SDS011;6914;53.552;9.908;2023-05-07T07:25:34;11.97;;;10.13;;
13683;SDS011;6914;53.552;9.908;2023-05-07T07:28:02;12.47;;;9.63;;
13683;SDS011;6914;53.552;9.908;2023-05-07T07:30:31;11.60;;;10.40;;
13683;SDS011;6914;53.552;9.908;2023-05-07T07:32:58;10.60;;;9.03;;
13683;SDS011;6914;53.552;9.908;2023-05-07T07:35:30;14.83;;;9.80;;
13683;SDS011;6914;53.552;9.908;2023-05-07T07:37:57;17.83;;;10.37;;
13683;SDS011;6914;53.552;9.908;2023-05-07T07:40:24;11.20;;;9.33;;
13683;SDS011;6914;53.552;9.908;2023-05-07T07:42:52;10.80;;;8.93;;
13683;SDS011;6914;53.552;9.908;2023-05-07T07:45:21;9.13;;;8.33;;
13683;SDS011;6914;53.552;9.908;2023-05-07T07:47:50;12.70;;;9.60;;
13683;SDS011;6914;53.552;9.908;2023-05-07T07:50:17;11.00;;;9.70;;
13683;SDS011;6914;53.552;9.908;2023-05-07T07:52:44;11.00;;;9.00;;
13683;SDS011;6914;53.552;9.908;2023-05-07T07:55:12;10.57;;;9.07;;
13683;SDS011;6914;53.552;9.908;2023-05-07T07:57:43;10.00;;;9.10;;
13683;SDS011;6914;53.552;9.908;2023-05-07T08:00:12;12.07;;;8.10;;
13683;SDS011;6914;53.552;9.908;2023-05-07T08:02:39;9.13;;;8.33;;
13683;SDS011;6914;53.552;9.908;2023-05-07T08:05:06;9.73;;;8.83;;
13683;SDS011;6914;53.552;9.908;2023-05-07T08:07:34;11.93;;;9.43;;
13683;SDS011;6914;53.552;9.908;2023-05-07T08:10:01;8.90;;;8.00;;
13683;SDS011;6914;53.552;9.908;2023-05-07T08:12:28;10.27;;;9.23;;
13683;SDS011;6914;53.552;9.908;2023-05-07T08:14:55;11.97;;;10.77;;
13683;SDS011;6914;53.552;9.908;2023-05-07T08:17:23;9.23;;;8.43;;
13683;SDS011;6914;53.552;9.908;2023-05-07T08:19:50;10.53;;;8.40;;
13683;SDS011;6914;53.552;9.908;2023-05-07T08:22:17;13.50;;;8.47;;
13683;SDS011;6914;53.552;9.908;2023-05-07T08:24:44;8.73;;;7.83;;
13683;SDS011;6914;53.552;9.908;2023-05-07T08:27:11;9.63;;;8.63;;
13683;SDS011;6914;53.552;9.908;2023-05-07T08:29:38;11.20;;;8.63;;
13683;SDS011;6914;53.552;9.908;2023-05-07T08:32:04;9.63;;;8.73;;
13683;SDS011;6914;53.552;9.908;2023-05-07T08:34:33;8.83;;;7.70;;
13683;SDS011;6914;53.552;9.908;2023-05-07T08:36:59;8.17;;;7.57;;
13683;SDS011;6914;53.552;9.908;2023-05-07T08:39:27;8.60;;;7.83;;
13683;SDS011;6914;53.552;9.908;2023-05-07T08:41:55;8.63;;;7.90;;
13683;SDS011;6914;53.552;9.908;2023-05-07T08:44:23;8.63;;;7.90;;
13683;SDS011;6914;53.552;9.908;2023-05-07T08:46:54;9.63;;;8.73;;
13683;SDS011;6914;53.552;9.908;2023-05-07T08:49:22;9.17;;;8.23;;
13683;SDS011;6914;53.552;9.908;2023-05-07T08:51:51;7.70;;;7.13;;
13683;SDS011;6914;53.552;9.908;2023-05-07T08:54:17;11.17;;;9.03;;
13683;SDS011;6914;53.552;9.908;2023-05-07T08:56:46;10.03;;;9.03;;
13683;SDS011;6914;53.552;9.908;2023-05-07T08:59:13;9.20;;;8.30;;
13683;SDS011;6914;53.552;9.908;2023-05-07T09:01:40;7.90;;;7.30;;
13683;SDS011;6914;53.552;9.908;2023-05-07T09:04:07;9.47;;;8.57;;
13683;SDS011;6914;53.552;9.908;2023-05-07T09:06:34;9.53;;;8.73;;
13683;SDS011;6914;53.552;9.908;2023-05-07T09:09:04;10.70;;;7.93;;
13683;SDS011;6914;53.552;9.908;2023-05-07T09:11:31;11.47;;;8.00;;
13683;SDS011;6914;53.552;9.908;2023-05-07T09:13:58;13.50;;;9.90;;
13683;SDS011;6914;53.552;9.908;2023-05-07T09:16:28;9.93;;;8.70;;
13683;SDS011;6914;53.552;9.908;2023-05-07T09:18:56;9.03;;;8.17;;
13683;SDS011;6914;53.552;9.908;2023-05-07T09:21:24;9.80;;;8.90;;
13683;SDS011;6914;53.552;9.908;2023-05-07T09:23:53;9.57;;;8.40;;
13683;SDS011;6914;53.552;9.908;2023-05-07T09:26:22;9.27;;;8.63;;
13683;SDS011;6914;53.552;9.908;2023-05-07T09:28:49;9.20;;;8.27;;
13683;SDS011;6914;53.552;9.908;2023-05-07T09:31:16;9.93;;;8.33;;
13683;SDS011;6914;53.552;9.908;2023-05-07T09:33:43;10.30;;;8.93;;
13683;SDS011;6914;53.552;9.908;2023-05-07T09:36:10;9.43;;;8.40;;
13683;SDS011;6914;53.552;9.908;2023-05-07T09:38:37;8.53;;;7.93;;
13683;SDS011;6914;53.552;9.908;2023-05-07T09:41:05;8.40;;;7.70;;
13683;SDS011;6914;53.552;9.908;2023-05-07T09:43:34;9.00;;;8.10;;
13683;SDS011;6914;53.552;9.908;2023-05-07T09:46:05;10.80;;;9.03;;
13683;SDS011;6914;53.552;9.908;2023-05-07T09:48:35;10.07;;;9.10;;
13683;SDS011;6914;53.552;9.908;2023-05-07T09:51:06;8.93;;;7.73;;
13683;SDS011;6914;53.552;9.908;2023-05-07T09:53:41;9.03;;;8.23;;
13683;SDS011;6914;53.552;9.908;2023-05-07T09:56:10;7.50;;;6.70;;
13683;SDS011;6914;53.552;9.908;2023-05-07T09:58:40;11.00;;;10.00;;
13683;SDS011;6914;53.552;9.908;2023-05-07T10:01:10;8.37;;;7.67;;
13683;SDS011;6914;53.552;9.908;2023-05-07T10:03:39;8.50;;;7.90;;
13683;SDS011;6914;53.552;9.908;2023-05-07T10:06:08;7.87;;;7.13;;
13683;SDS011;6914;53.552;9.908;2023-05-07T10:08:35;10.40;;;7.53;;
13683;SDS011;6914;53.552;9.908;2023-05-07T10:11:04;8.97;;;8.20;;
13683;SDS011;6914;53.552;9.908;2023-05-07T10:13:32;13.93;;;8.23;;
13683;SDS011;6914;53.552;9.908;2023-05-07T10:16:02;8.07;;;7.27;;
13683;SDS011;6914;53.552;9.908;2023-05-07T10:18:31;8.30;;;7.37;;
13683;SDS011;6914;53.552;9.908;2023-05-07T10:21:01;7.87;;;7.17;;
13683;SDS011;6914;53.552;9.908;2023-05-07T10:23:34;10.73;;;9.07;;
13683;SDS011;6914;53.552;9.908;2023-05-07T10:26:03;9.40;;;8.50;;
13683;SDS011;6914;53.552;9.908;2023-05-07T10:28:34;9.70;;;8.70;;
13683;SDS011;6914;53.552;9.908;2023-05-07T10:31:10;10.07;;;9.17;;
13683;SDS011;6914;53.552;9.908;2023-05-07T10:33:48;8.70;;;8.10;;
13683;SDS011;6914;53.552;9.908;2023-05-07T10:36:17;9.83;;;8.93;;
13683;SDS011;6914;53.552;9.908;2023-05-07T10:38:49;8.83;;;6.90;;
13683;SDS011;6914;53.552;9.908;2023-05-07T10:41:16;7.27;;;6.77;;
13683;SDS011;6914;53.552;9.908;2023-05-07T10:43:46;9.50;;;8.50;;
13683;SDS011;6914;53.552;9.908;2023-05-07T10:46:17;8.40;;;7.60;;
13683;SDS011;6914;53.552;9.908;2023-05-07T10:51:36;8.93;;;7.90;;
13683;SDS011;6914;53.552;9.908;2023-05-07T10:54:22;7.93;;;7.23;;
13683;SDS011;6914;53.552;9.908;2023-05-07T10:56:49;7.27;;;6.57;;
13683;SDS011;6914;53.552;9.908;2023-05-07T10:59:36;7.73;;;7.13;;
13683;SDS011;6914;53.552;9.908;2023-05-07T11:02:09;8.87;;;8.10;;
13683;SDS011;6914;53.552;9.908;2023-05-07T11:04:39;10.20;;;7.63;;
13683;SDS011;6914;53.552;9.908;2023-05-07T11:10:08;7.53;;;7.03;;
13683;SDS011;6914;53.552;9.908;2023-05-07T11:12:48;10.20;;;7.47;;
13683;SDS011;6914;53.552;9.908;2023-05-07T11:15:40;7.90;;;7.10;;
13683;SDS011;6914;53.552;9.908;2023-05-07T11:18:11;6.37;;;6.07;;
13683;SDS011;6914;53.552;9.908;2023-05-07T11:20:45;7.10;;;6.70;;
13683;SDS011;6914;53.552;9.908;2023-05-07T11:26:28;7.93;;;7.13;;
13683;SDS011;6914;53.552;9.908;2023-05-07T11:28:56;7.27;;;6.40;;
13683;SDS011;6914;53.552;9.908;2023-05-07T11:31:26;7.30;;;6.80;;
13683;SDS011;6914;53.552;9.908;2023-05-07T11:33:56;6.27;;;5.87;;
13683;SDS011;6914;53.552;9.908;2023-05-07T11:36:23;9.27;;;7.07;;
13683;SDS011;6914;53.552;9.908;2023-05-07T11:38:52;6.60;;;6.20;;
13683;SDS011;6914;53.552;9.908;2023-05-07T11:41:19;9.23;;;6.47;;
13683;SDS011;6914;53.552;9.908;2023-05-07T11:43:53;7.27;;;6.77;;
13683;SDS011;6914;53.552;9.908;2023-05-07T11:46:42;7.50;;;7.00;;
13683;SDS011;6914;53.552;9.908;2023-05-07T11:49:18;7.13;;;6.50;;
13683;SDS011;6914;53.552;9.908;2023-05-07T11:51:45;7.43;;;6.90;;
13683;SDS011;6914;53.552;9.908;2023-05-07T11:54:15;6.80;;;6.20;;
13683;SDS011;6914;53.552;9.908;2023-05-07T11:56:43;7.13;;;6.57;;
13683;SDS011;6914;53.552;9.908;2023-05-07T11:59:16;14.97;;;6.80;;
13683;SDS011;6914;53.552;9.908;2023-05-07T12:01:45;7.17;;;6.67;;
13683;SDS011;6914;53.552;9.908;2023-05-07T12:04:22;6.17;;;5.73;;
13683;SDS011;6914;53.552;9.908;2023-05-07T12:07:32;6.53;;;6.10;;
13683;SDS011;6914;53.552;9.908;2023-05-07T12:09:53;6.10;;;5.80;;
13683;SDS011;6914;53.552;9.908;2023-05-07T12:12:22;6.47;;;5.97;;
13683;SDS011;6914;53.552;9.908;2023-05-07T12:14:52;6.43;;;5.90;;
13683;SDS011;6914;53.552;9.908;2023-05-07T12:17:20;6.87;;;6.27;;
13683;SDS011;6914;53.552;9.908;2023-05-07T12:19:48;5.90;;;5.50;;
13683;SDS011;6914;53.552;9.908;2023-05-07T12:22:15;5.77;;;5.37;;
13683;SDS011;6914;53.552;9.908;2023-05-07T12:24:43;6.23;;;5.83;;
13683;SDS011;6914;53.552;9.908;2023-05-07T12:27:15;6.10;;;5.60;;
13683;SDS011;6914;53.552;9.908;2023-05-07T12:29:44;5.30;;;4.83;;
13683;SDS011;6914;53.552;9.908;2023-05-07T12:32:12;5.37;;;4.97;;
13683;SDS011;6914;53.552;9.908;2023-05-07T12:34:40;5.50;;;5.20;;
13683;SDS011;6914;53.552;9.908;2023-05-07T12:37:09;5.53;;;5.13;;
13683;SDS011;6914;53.552;9.908;2023-05-07T12:39:37;6.40;;;4.93;;
13683;SDS011;6914;53.552;9.908;2023-05-07T12:42:05;4.90;;;4.60;;
13683;SDS011;6914;53.552;9.908;2023-05-07T12:44:32;5.53;;;5.13;;
13683;SDS011;6914;53.552;9.908;2023-05-07T12:47:05;4.70;;;4.50;;
13683;SDS011;6914;53.552;9.908;2023-05-07T12:49:34;4.60;;;4.40;;
13683;SDS011;6914;53.552;9.908;2023-05-07T12:52:06;16.33;;;4.53;;
13683;SDS011;6914;53.552;9.908;2023-05-07T12:54:37;4.60;;;4.40;;
13683;SDS011;6914;53.552;9.908;2023-05-07T12:57:07;4.87;;;4.57;;
13683;SDS011;6914;53.552;9.908;2023-05-07T12:59:36;4.87;;;4.67;;
13683;SDS011;6914;53.552;9.908;2023-05-07T13:02:05;5.33;;;4.83;;
13683;SDS011;6914;53.552;9.908;2023-05-07T13:04:37;6.97;;;5.57;;
13683;SDS011;6914;53.552;9.908;2023-05-07T13:07:06;4.43;;;4.00;;
13683;SDS011;6914;53.552;9.908;2023-05-07T13:09:33;4.77;;;4.47;;
13683;SDS011;6914;53.552;9.908;2023-05-07T13:12:02;5.97;;;4.60;;
13683;SDS011;6914;53.552;9.908;2023-05-07T13:14:32;4.47;;;4.17;;
13683;SDS011;6914;53.552;9.908;2023-05-07T13:16:59;4.50;;;4.20;;
13683;SDS011;6914;53.552;9.908;2023-05-07T13:19:25;4.07;;;3.87;;
13683;SDS011;6914;53.552;9.908;2023-05-07T13:21:52;4.50;;;4.20;;
13683;SDS011;6914;53.552;9.908;2023-05-07T13:24:19;4.33;;;4.13;;
13683;SDS011;6914;53.552;9.908;2023-05-07T13:26:47;3.93;;;3.73;;
13683;SDS011;6914;53.552;9.908;2023-05-07T13:29:15;4.60;;;4.40;;
13683;SDS011;6914;53.552;9.908;2023-05-07T13:31:42;4.10;;;3.90;;
13683;SDS011;6914;53.552;9.908;2023-05-07T13:34:09;4.13;;;3.83;;
13683;SDS011;6914;53.552;9.908;2023-05-07T13:36:36;4.50;;;4.20;;
13683;SDS011;6914;53.552;9.908;2023-05-07T13:39:05;3.70;;;3.50;;
13683;SDS011;6914;53.552;9.908;2023-05-07T13:41:32;3.60;;;3.50;;
13683;SDS011;6914;53.552;9.908;2023-05-07T13:44:01;3.50;;;3.40;;
13683;SDS011;6914;53.552;9.908;2023-05-07T13:46:30;3.80;;;3.57;;
13683;SDS011;6914;53.552;9.908;2023-05-07T13:48:57;3.57;;;3.27;;
13683;SDS011;6914;53.552;9.908;2023-05-07T13:51:24;3.53;;;3.43;;
13683;SDS011;6914;53.552;9.908;2023-05-07T13:53:52;3.63;;;3.33;;
13683;SDS011;6914;53.552;9.908;2023-05-07T13:56:19;4.33;;;4.13;;
13683;SDS011;6914;53.552;9.908;2023-05-07T13:58:46;3.70;;;3.40;;
13683;SDS011;6914;53.552;9.908;2023-05-07T14:01:14;3.30;;;3.20;;
13683;SDS011;6914;53.552;9.908;2023-05-07T14:03:41;3.40;;;3.10;;
13683;SDS011;6914;53.552;9.908;2023-05-07T14:06:08;4.13;;;3.93;;
13683;SDS011;6914;53.552;9.908;2023-05-07T14:08:35;4.10;;;3.70;;
13683;SDS011;6914;53.552;9.908;2023-05-07T14:11:02;4.47;;;4.07;;
13683;SDS011;6914;53.552;9.908;2023-05-07T14:13:30;4.10;;;3.90;;
13683;SDS011;6914;53.552;9.908;2023-05-07T14:15:57;3.93;;;3.70;;
13683;SDS011;6914;53.552;9.908;2023-05-07T14:18:25;3.60;;;3.40;;
13683;SDS011;6914;53.552;9.908;2023-05-07T14:20:54;3.40;;;3.30;;
13683;SDS011;6914;53.552;9.908;2023-05-07T14:23:20;3.53;;;3.43;;
13683;SDS011;6914;53.552;9.908;2023-05-07T14:25:51;3.60;;;3.30;;
13683;SDS011;6914;53.552;9.908;2023-05-07T14:28:18;3.30;;;3.00;;
13683;SDS011;6914;53.552;9.908;2023-05-07T14:30:45;3.73;;;3.53;;
13683;SDS011;6914;53.552;9.908;2023-05-07T14:33:12;3.00;;;2.90;;
13683;SDS011;6914;53.552;9.908;2023-05-07T14:35:41;2.90;;;2.80;;
13683;SDS011;6914;53.552;9.908;2023-05-07T14:38:12;2.63;;;2.53;;
13683;SDS011;6914;53.552;9.908;2023-05-07T14:40:39;3.20;;;3.10;;
13683;SDS011;6914;53.552;9.908;2023-05-07T14:43:07;3.17;;;2.97;;
13683;SDS011;6914;53.552;9.908;2023-05-07T14:45:34;2.93;;;2.73;;
13683;SDS011;6914;53.552;9.908;2023-05-07T14:48:01;4.00;;;3.70;;
13683;SDS011;6914;53.552;9.908;2023-05-07T14:50:28;3.50;;;3.30;;
13683;SDS011;6914;53.552;9.908;2023-05-07T14:52:56;3.27;;;3.07;;
13683;SDS011;6914;53.552;9.908;2023-05-07T14:55:23;3.23;;;3.03;;
13683;SDS011;6914;53.552;9.908;2023-05-07T14:57:50;8.00;;;2.97;;
13683;SDS011;6914;53.552;9.908;2023-05-07T15:00:17;3.60;;;3.30;;
13683;SDS011;6914;53.552;9.908;2023-05-07T15:02:44;3.20;;;3.00;;